Laguna Niguel, California
Current Conditions -  °F | °C
As of 6:53 PM on Friday 21 Nov 2014 (Local Time) from KSNA Reporting Station
Clear Clear  
Wind Chill: 19°   Ceiling: Unl
Heat Index: 19°   Visibility: 10mi
Dew Point: 11°   Wind: 0mph
Humidity: 59%   Direction: NA
Pressure: 30"   Gusts: NA
Location:  33.56°N, 117.7°W
Report Text: KSNA 220253Z 00000KT 10SM CLR 19/11 A3000 RMK AO2 SLP159 T01890106 53016
Loading
Personal Weather Stations






























Interactive Weather Map New forecast layout! Learn more

10-Day Weather Forecast

Advertisements
Track Severe Weather on mobile